ADDS METAR Data

Data at: 1834 UTC 20 Jul 2018

METAR for:KLCI (Laconia Muni, NH, US)
Text:KLCI 201756Z AUTO 05007KT 10SM CLR 27/12 A3017 RMK AO2 SLP227 T02720122 10272 20178 58011
Temperature: 27.2°C ( 81°F)
Dewpoint: 12.2°C ( 54°F) [RH = 39%]
Pressure (altimeter):30.17 inches Hg (1021.8 mb) [Sea level pressure: 1022.7 mb]
Winds:from the NE (50 degrees) at 8 MPH (7 knots; 3.6 m/s)
Visibility:10 or more sm (16+ km)
Ceiling:at least 12,000 feet AGL
Clouds:sky clear below 12,000 feet AGL
QC Flag:automated observation with no human augmentation